Time;durP1;ratioP1;P1;durP2;ratioP2;P2;SDS_P1;SDS_P2;PMS_P1;PMS_P2;Temp;Humidity;BMP_temperature;BMP_pressure;BME280_temperature;BME280_humidity;BME280_pressure;Samples;Min_cycle;Max_cycle;Signal;HPM_P1;HPM_P2
2021/08/12 00:03:40;;;;;;;9.67;5.53;;;;;;;20.81;58.54;98398.75;8352354;28;20231;-86
2021/08/12 00:07:44;;;;;;;12.53;5.27;;;;;;;20.84;58.78;98395.03;8352720;28;20212;-85
2021/08/12 00:11:47;;;;;;;13.40;5.47;;;;;;;20.78;58.83;98406.03;8352183;28;20211;-85
2021/08/12 00:15:50;;;;;;;10.57;5.20;;;;;;;20.75;58.81;98407.09;8352149;28;20388;-85
2021/08/12 00:19:53;;;;;;;10.87;5.40;;;;;;;20.78;58.67;98404.25;8351927;28;20274;-86
2021/08/12 00:23:57;;;;;;;8.17;5.43;;;;;;;20.69;58.36;98395.31;8351743;28;20239;-85
2021/08/12 00:28:01;;;;;;;7.00;5.07;;;;;;;20.67;58.49;98401.63;8351688;28;20270;-85
2021/08/12 00:32:04;;;;;;;10.57;5.37;;;;;;;20.58;58.70;98399.69;8351350;28;20204;-85
2021/08/12 00:36:07;;;;;;;8.90;5.07;;;;;;;20.53;58.87;98397.41;8351303;28;20236;-85
2021/08/12 00:40:12;;;;;;;9.80;5.00;;;;;;;20.53;59.23;98405.31;8351179;28;20200;-85
2021/08/12 00:44:15;;;;;;;7.83;4.83;;;;;;;20.59;58.59;98404.00;8351076;28;20227;-85
2021/08/12 00:48:18;;;;;;;8.67;4.93;;;;;;;20.49;58.57;98409.97;8351037;28;20212;-85
2021/08/12 00:52:21;;;;;;;8.07;4.70;;;;;;;20.49;58.30;98407.34;8351312;28;20203;-85
2021/08/12 00:56:26;;;;;;;8.93;5.50;;;;;;;20.46;58.59;98409.38;8350652;28;20212;-85
2021/08/12 01:00:28;;;;;;;9.03;5.73;;;;;;;20.43;58.82;98404.38;8351113;28;20213;-85
2021/08/12 01:04:31;;;;;;;10.27;5.57;;;;;;;20.28;58.84;98417.75;8350692;28;20566;-84
2021/08/12 01:08:41;;;;;;;6.43;5.13;;;;;;;20.24;58.64;98412.84;8350739;28;20207;-84
2021/08/12 01:12:50;;;;;;;5.60;4.63;;;;;;;20.22;59.07;98420.00;8350429;28;20208;-85
2021/08/12 01:16:59;;;;;;;7.47;5.77;;;;;;;20.23;59.01;98413.78;8350284;28;20200;-85
2021/08/12 01:21:31;;;;;;;6.93;5.17;;;;;;;20.16;58.69;98421.28;8350305;28;20583;-85
2021/08/12 01:25:35;;;;;;;6.77;5.33;;;;;;;20.11;59.27;98408.50;8350245;28;20202;-85
2021/08/12 01:29:51;;;;;;;9.43;5.57;;;;;;;20.15;58.93;98401.22;8350170;28;20200;-85
2021/08/12 01:34:03;;;;;;;7.27;5.20;;;;;;;20.06;59.38;98404.56;8350139;28;20231;-84
2021/08/12 01:38:10;;;;;;;6.23;5.10;;;;;;;20.01;58.95;98402.28;8349735;28;20241;-85
2021/08/12 01:42:13;;;;;;;6.40;4.70;;;;;;;19.95;59.59;98405.38;8350052;28;20228;-85
2021/08/12 01:46:16;;;;;;;12.67;5.23;;;;;;;19.89;59.10;98406.66;8354286;28;20488;-85
2021/08/12 01:50:20;;;;;;;7.50;5.10;;;;;;;19.85;58.60;98404.41;8356614;28;20205;-85
2021/08/12 01:54:26;;;;;;;9.40;5.13;;;;;;;19.87;58.64;98398.06;8356390;28;20204;-85
2021/08/12 01:58:30;;;;;;;7.43;4.83;;;;;;;19.78;58.85;98416.31;8356406;28;20201;-85
2021/08/12 02:02:33;;;;;;;9.53;4.80;;;;;;;19.77;58.99;98406.78;8356421;28;20230;-85
2021/08/12 02:06:37;;;;;;;9.27;5.40;;;;;;;19.78;58.99;98416.31;8356048;28;20229;-85
2021/08/12 02:10:42;;;;;;;8.93;5.50;;;;;;;19.70;59.07;98412.47;8355938;28;20204;-85
2021/08/12 02:14:45;;;;;;;11.77;5.03;;;;;;;19.75;59.30;98412.16;8356042;28;20227;-85
2021/08/12 02:18:48;;;;;;;6.67;4.80;;;;;;;19.79;58.80;98404.88;8355766;28;20209;-85
2021/08/12 02:22:56;;;;;;;10.03;5.30;;;;;;;19.77;58.58;98397.09;8355414;28;20228;-85
2021/08/12 02:27:02;;;;;;;7.80;4.80;;;;;;;19.76;58.73;98397.22;8355537;28;20207;-85
2021/08/12 02:31:06;;;;;;;6.10;5.10;;;;;;;19.66;59.01;98389.97;8355471;28;20204;-85
2021/08/12 02:35:11;;;;;;;6.97;5.20;;;;;;;19.59;58.94;98385.31;8355122;28;20399;-86
2021/08/12 02:39:15;;;;;;;10.63;5.33;;;;;;;19.58;59.30;98396.78;8355251;28;20201;-85
2021/08/12 02:43:20;;;;;;;11.67;6.07;;;;;;;19.55;59.63;98400.44;8354961;28;20424;-85
2021/08/12 02:47:23;;;;;;;6.33;4.97;;;;;;;19.52;59.06;98391.00;8354849;28;20201;-85
2021/08/12 02:51:27;;;;;;;8.87;5.70;;;;;;;19.51;59.07;98392.00;8354471;28;20497;-85
2021/08/12 02:55:30;;;;;;;10.63;5.50;;;;;;;19.48;58.94;98383.50;8354551;28;20200;-86
2021/08/12 02:59:35;;;;;;;8.87;5.27;;;;;;;19.45;58.90;98389.78;8354494;28;20406;-85
2021/08/12 03:03:42;;;;;;;9.73;5.83;;;;;;;19.41;59.53;98380.47;8354285;28;20230;-85
2021/08/12 03:07:45;;;;;;;10.53;6.37;;;;;;;19.41;59.70;98372.59;8354219;28;20307;-85
2021/08/12 03:11:48;;;;;;;7.70;5.50;;;;;;;19.36;59.68;98374.72;8354534;28;20205;-85
2021/08/12 03:15:53;;;;;;;9.70;5.43;;;;;;;19.42;59.36;98379.53;8353958;28;20213;-85
2021/08/12 03:19:56;;;;;;;10.83;6.00;;;;;;;19.34;59.84;98380.09;8353959;28;20201;-85
2021/08/12 03:24:01;;;;;;;10.60;5.77;;;;;;;19.31;59.28;98385.56;8353835;28;20247;-84
2021/08/12 03:28:04;;;;;;;9.63;5.23;;;;;;;19.26;59.13;98387.69;8353686;28;20212;-85
2021/08/12 03:32:09;;;;;;;7.63;5.43;;;;;;;19.24;58.86;98384.34;8353542;28;20212;-85
2021/08/12 03:36:12;;;;;;;9.70;5.50;;;;;;;19.28;59.12;98382.31;8353040;28;20228;-84
2021/08/12 03:40:15;;;;;;;8.87;5.20;;;;;;;19.18;59.30;98379.53;8353500;28;20211;-84
2021/08/12 03:44:18;;;;;;;7.70;5.20;;;;;;;19.22;59.05;98385.41;8353348;28;20528;-85
2021/08/12 03:48:39;;;;;;;10.57;5.27;;;;;;;19.21;58.91;98379.31;8353249;28;20204;-85
2021/08/12 03:52:41;;;;;;;11.73;5.30;;;;;;;19.19;58.86;98383.84;8352934;28;20457;-85
2021/08/12 03:56:44;;;;;;;9.23;5.57;;;;;;;19.21;59.10;98384.56;8352711;28;20208;-85
2021/08/12 04:00:47;;;;;;;11.70;5.80;;;;;;;19.15;59.16;98387.63;8352735;28;20208;-85
2021/08/12 04:04:52;;;;;;;7.10;5.17;;;;;;;19.15;59.61;98371.88;8352472;28;20329;-85
2021/08/12 04:08:54;;;;;;;11.77;5.80;;;;;;;19.11;60.13;98379.16;8352084;28;20204;-85
2021/08/12 04:12:57;;;;;;;6.50;5.63;;;;;;;19.13;59.96;98376.41;8352458;28;20519;-85
2021/08/12 04:17:00;;;;;;;12.70;6.13;;;;;;;19.14;59.57;98373.66;8352039;28;20200;-85
2021/08/12 04:21:05;;;;;;;7.53;4.97;;;;;;;19.15;59.30;98374.50;8351915;28;20208;-85
2021/08/12 04:25:09;;;;;;;10.47;4.60;;;;;;;19.13;59.05;98374.63;8351774;28;20259;-85
2021/08/12 04:29:12;;;;;;;8.90;5.17;;;;;;;19.08;59.14;98376.75;8351881;28;20210;-85
2021/08/12 04:33:14;;;;;;;6.37;4.83;;;;;;;19.08;59.03;98375.91;8351566;28;20211;-85
2021/08/12 04:37:19;;;;;;;14.17;5.30;;;;;;;19.10;58.72;98380.09;8351166;28;20367;-85
2021/08/12 04:41:22;;;;;;;9.90;5.10;;;;;;;19.10;58.84;98379.28;8351324;28;20208;-85
2021/08/12 04:45:27;;;;;;;8.63;5.40;;;;;;;19.06;58.96;98383.06;8351184;28;20291;-85
2021/08/12 04:49:30;;;;;;;7.03;5.40;;;;;;;19.13;58.88;98384.28;8351223;28;20484;-85
2021/08/12 04:53:34;;;;;;;10.00;5.33;;;;;;;19.22;58.68;98383.59;8351060;28;20204;-85
2021/08/12 04:57:37;;;;;;;6.97;5.33;;;;;;;19.19;59.10;98399.59;8351141;28;20208;-85
2021/08/12 05:01:40;;;;;;;9.50;5.30;;;;;;;19.22;59.43;98402.00;8350826;28;20511;-85
2021/08/12 05:05:43;;;;;;;10.53;5.43;;;;;;;19.24;59.38;98399.25;8350698;28;20346;-85
2021/08/12 05:09:47;;;;;;;9.07;5.67;;;;;;;19.23;59.25;98403.69;8350722;28;20378;-85
2021/08/12 05:13:51;;;;;;;10.00;5.20;;;;;;;19.28;59.60;98403.31;8350901;28;20204;-85
2021/08/12 05:17:53;;;;;;;11.97;5.63;;;;;;;19.40;59.05;98404.22;8350626;28;20204;-85
2021/08/12 05:21:56;;;;;;;10.40;5.83;;;;;;;19.47;58.90;98410.69;8349591;28;20495;-84
2021/08/12 05:26:01;;;;;;;7.40;5.37;;;;;;;19.51;59.27;98410.38;8350347;28;20229;-84
2021/08/12 05:30:05;;;;;;;7.50;5.77;;;;;;;19.64;60.03;98404.19;8350124;28;20273;-85
2021/08/12 05:34:08;;;;;;;10.03;6.00;;;;;;;19.61;60.54;98407.03;8349943;28;20205;-84
2021/08/12 05:38:10;;;;;;;11.30;6.03;;;;;;;19.73;60.30;98416.69;8349867;28;20228;-84
2021/08/12 05:42:15;;;;;;;8.10;5.93;;;;;;;19.79;60.51;98412.75;8349796;28;20493;-84
2021/08/12 05:46:17;;;;;;;10.80;6.77;;;;;;;19.87;60.50;98413.00;8350010;28;20200;-84
2021/08/12 05:50:20;;;;;;;10.60;6.23;;;;;;;19.79;60.52;98421.47;8349775;28;20228;-85
2021/08/12 05:54:23;;;;;;;7.10;6.07;;;;;;;20.03;60.23;98426.69;8349731;28;20206;-85
2021/08/12 05:58:28;;;;;;;10.27;6.27;;;;;;;19.98;59.95;98423.53;8349667;28;20202;-85
2021/08/12 06:02:32;;;;;;;10.13;5.50;;;;;;;20.01;60.17;98435.59;8349586;28;20209;-85
2021/08/12 06:06:39;;;;;;;11.53;6.40;;;;;;;20.17;59.56;98428.25;8349474;28;20227;-85
2021/08/12 06:10:42;;;;;;;11.27;6.30;;;;;;;20.23;59.46;98427.75;8351590;28;20285;-84
2021/08/12 06:14:46;;;;;;;8.57;5.97;;;;;;;20.21;59.10;98429.69;8349471;28;20396;-85
2021/08/12 06:18:49;;;;;;;13.57;6.13;;;;;;;20.28;59.17;98430.88;8349401;28;20202;-85
2021/08/12 06:22:53;;;;;;;7.90;5.90;;;;;;;20.47;58.81;98424.22;8349757;28;20233;-85
2021/08/12 06:26:57;;;;;;;8.20;6.53;;;;;;;20.87;57.96;98429.00;8349175;28;20209;-85
2021/08/12 06:31:01;;;;;;;9.80;6.53;;;;;;;20.82;57.97;98433.78;8350948;28;20202;-85
2021/08/12 06:35:06;;;;;;;8.80;6.67;;;;;;;21.21;57.27;98423.66;8355139;28;20238;-85
2021/08/12 06:39:09;;;;;;;12.47;6.37;;;;;;;21.61;57.02;98423.06;8355009;28;20208;-85
2021/08/12 06:43:12;;;;;;;9.53;6.23;;;;;;;21.63;56.52;98419.34;8354852;28;20239;-85
2021/08/12 06:47:16;;;;;;;8.43;6.17;;;;;;;21.56;55.27;98418.19;8354958;28;20205;-85
2021/08/12 06:51:19;;;;;;;6.33;5.10;;;;;;;21.64;55.34;98415.75;8355058;28;20315;-84
2021/08/12 06:55:22;;;;;;;8.03;5.83;;;;;;;21.50;55.67;98412.59;8354548;28;20294;-85
2021/08/12 06:59:24;;;;;;;9.77;5.67;;;;;;;21.61;55.15;98418.66;8354614;28;20215;-84
2021/08/12 07:03:29;;;;;;;10.30;5.80;;;;;;;21.77;54.98;98420.84;8354546;28;20409;-84
2021/08/12 07:07:31;;;;;;;7.43;6.07;;;;;;;21.94;55.41;98427.34;8354588;28;20204;-84
2021/08/12 07:11:34;;;;;;;9.67;5.53;;;;;;;22.33;55.12;98432.88;8354524;28;20502;-84
2021/08/12 07:15:37;;;;;;;8.00;6.13;;;;;;;22.32;53.35;98430.38;8354334;28;20230;-85
2021/08/12 07:19:42;;;;;;;7.97;5.00;;;;;;;22.54;52.75;98419.66;8354246;28;20383;-84
2021/08/12 07:23:46;;;;;;;7.23;5.37;;;;;;;22.25;52.46;98427.41;8354065;28;20230;-84
2021/08/12 07:27:50;;;;;;;9.37;5.27;;;;;;;22.28;53.32;98423.69;8354403;28;20245;-85
2021/08/12 07:31:54;;;;;;;10.17;5.60;;;;;;;22.63;52.42;98431.19;8354175;28;20227;-85
2021/08/12 07:35:58;;;;;;;12.33;5.67;;;;;;;22.52;52.61;98432.13;8353344;28;20290;-84
2021/08/12 07:40:01;;;;;;;6.70;5.50;;;;;;;22.71;52.75;98436.63;8353905;28;20207;-85
2021/08/12 07:44:05;;;;;;;9.00;5.23;;;;;;;22.73;52.77;98433.88;8352750;28;20228;-85
2021/08/12 07:48:07;;;;;;;7.93;5.27;;;;;;;23.14;51.89;98432.06;8353647;28;20484;-85
2021/08/12 07:52:12;;;;;;;11.20;5.53;;;;;;;23.23;51.86;98432.09;8353245;28;20200;-84
2021/08/12 07:56:15;;;;;;;6.70;5.60;;;;;;;23.85;50.20;98423.91;8353364;28;20391;-84
2021/08/12 08:00:18;;;;;;;8.07;5.40;;;;;;;23.91;50.56;98430.44;8352978;28;20207;-85
2021/08/12 08:04:21;;;;;;;8.97;5.60;;;;;;;23.89;50.59;98422.66;8353320;28;20235;-85
2021/08/12 08:08:26;;;;;;;8.07;5.43;;;;;;;24.35;50.41;98418.38;8353020;28;20212;-84
2021/08/12 08:12:28;;;;;;;9.97;5.63;;;;;;;24.44;49.48;98416.66;8352423;28;20241;-85
2021/08/12 08:16:33;;;;;;;8.60;5.30;;;;;;;24.81;48.78;98420.28;8352567;28;20211;-85
2021/08/12 08:20:36;;;;;;;8.30;4.93;;;;;;;25.26;48.97;98422.16;8352257;28;20207;-85
2021/08/12 08:24:40;;;;;;;6.40;4.93;;;;;;;25.35;47.43;98421.25;8351940;28;20234;-85
2021/08/12 08:28:43;;;;;;;8.63;4.93;;;;;;;25.63;47.89;98424.66;8352112;28;20204;-84
2021/08/12 08:32:46;;;;;;;7.30;5.10;;;;;;;25.75;47.08;98427.91;8351981;28;20200;-84
2021/08/12 08:36:49;;;;;;;13.20;4.97;;;;;;;25.96;46.67;98432.09;8351810;28;20599;-84
2021/08/12 08:40:54;;;;;;;6.30;4.73;;;;;;;26.26;46.82;98423.66;8351955;28;20201;-84
2021/08/12 08:44:58;;;;;;;7.43;4.97;;;;;;;26.48;45.27;98432.06;8351628;28;20550;-84
2021/08/12 08:49:03;;;;;;;9.53;5.70;;;;;;;26.62;45.95;98417.41;8351493;28;20231;-84
2021/08/12 08:53:06;;;;;;;9.47;5.63;;;;;;;26.27;44.71;98421.81;8351365;28;20215;-86
2021/08/12 08:57:10;;;;;;;8.33;4.90;;;;;;;26.55;44.21;98429.63;8351189;28;20210;-85
2021/08/12 09:01:13;;;;;;;7.97;5.03;;;;;;;27.49;43.64;98412.66;8351162;28;20205;-85
2021/08/12 09:05:17;;;;;;;6.70;4.63;;;;;;;27.60;43.78;98406.19;8350999;28;20423;-85
2021/08/12 09:09:20;;;;;;;8.30;5.03;;;;;;;27.75;41.60;98406.38;8351222;28;20207;-86
2021/08/12 09:13:24;;;;;;;5.70;4.57;;;;;;;27.96;42.11;98398.72;8351439;28;20374;-85
2021/08/12 09:17:27;;;;;;;6.10;4.80;;;;;;;27.58;41.92;98400.22;8353111;28;20212;-86
2021/08/12 09:21:32;;;;;;;7.03;4.57;;;;;;;27.32;42.54;98395.03;8350552;28;20208;-86
2021/08/12 09:25:40;;;;;;;9.90;4.90;;;;;;;27.03;42.35;98405.06;8350226;28;20227;-86
2021/08/12 09:29:44;;;;;;;7.00;4.23;;;;;;;27.65;40.92;98402.03;8350185;28;20211;-87
2021/08/12 09:33:55;;;;;;;6.10;4.67;;;;;;;28.17;40.59;98398.19;8350001;28;20202;-86
2021/08/12 09:38:08;;;;;;;6.27;4.33;;;;;;;28.11;39.52;98392.72;8349870;28;20229;-86
2021/08/12 09:42:13;;;;;;;7.43;4.57;;;;;;;28.45;39.16;98389.78;8350211;28;20526;-86
2021/08/12 09:46:17;;;;;;;8.63;4.43;;;;;;;28.58;37.50;98389.28;8350134;28;20238;-86
2021/08/12 09:50:24;;;;;;;5.50;4.30;;;;;;;28.70;36.52;98379.88;8349958;28;20246;-87
2021/08/12 09:54:32;;;;;;;6.23;4.63;;;;;;;29.69;34.88;98381.94;8349685;28;20230;-86
2021/08/12 09:58:36;;;;;;;5.43;4.13;;;;;;;29.29;34.18;98379.41;8349843;28;20500;-84
2021/08/12 10:02:41;;;;;;;5.13;3.80;;;;;;;29.12;35.07;98377.84;8349972;28;20226;-87
2021/08/12 10:06:44;;;;;;;7.07;4.30;;;;;;;29.05;36.19;98377.69;8352858;28;20241;-87
2021/08/12 10:10:47;;;;;;;9.50;4.47;;;;;;;29.54;36.04;98377.38;8356207;28;20204;-86
2021/08/12 10:14:51;;;;;;;6.63;4.40;;;;;;;29.74;34.52;98380.41;8355973;28;20240;-86
2021/08/12 10:18:56;;;;;;;6.57;4.33;;;;;;;29.61;34.98;98385.50;8356340;28;20203;-87
2021/08/12 10:23:00;;;;;;;9.43;3.80;;;;;;;29.87;35.07;98387.78;8356191;28;20200;-88
2021/08/12 10:27:03;;;;;;;5.40;4.00;;;;;;;30.13;35.63;98375.88;8355748;28;20236;-87
2021/08/12 10:31:07;;;;;;;6.73;4.47;;;;;;;30.31;34.81;98379.00;8355746;28;20200;-85
2021/08/12 10:35:12;;;;;;;8.13;4.60;;;;;;;30.30;33.83;98381.84;8355570;28;20276;-85
2021/08/12 10:39:15;;;;;;;4.70;3.57;;;;;;;30.53;35.10;98374.59;8355961;28;20210;-86
2021/08/12 10:43:20;;;;;;;5.63;4.30;;;;;;;30.92;34.43;98367.25;8355478;28;20212;-86
2021/08/12 10:47:44;;;;;;;5.17;3.97;;;;;;;30.65;33.10;98363.44;8355651;28;20527;-88
2021/08/12 10:51:52;;;;;;;4.77;4.27;;;;;;;30.82;33.80;98362.19;8355245;28;20211;-86
2021/08/12 10:56:09;;;;;;;9.03;4.73;;;;;;;30.00;34.24;98361.28;8355108;28;20217;-86
2021/08/12 11:00:45;;;;;;;8.63;5.70;;;;;;;30.51;33.42;98357.09;8355073;28;20207;-88
2021/08/12 11:04:52;;;;;;;7.93;4.37;;;;;;;31.06;33.55;98345.00;8354436;28;20237;-86
2021/08/12 11:09:02;;;;;;;14.27;5.43;;;;;;;30.73;33.13;98356.13;8354480;28;20203;-86
2021/08/12 11:13:05;;;;;;;10.63;5.10;;;;;;;30.34;33.79;98356.47;8354453;28;20215;-87
2021/08/12 11:17:08;;;;;;;6.83;5.03;;;;;;;31.03;33.31;98347.22;8352997;28;20216;-85
2021/08/12 11:21:35;;;;;;;9.43;5.17;;;;;;;31.22;32.85;98356.47;8354069;28;20204;-89
2021/08/12 11:25:57;;;;;;;6.37;4.90;;;;;;;30.98;33.04;98356.66;8353849;28;20235;-87
2021/08/12 11:30:49;;;;;;;7.37;5.30;;;;;;;31.18;32.72;98346.13;8354216;28;20202;-86
2021/08/12 11:34:57;;;;;;;4.93;4.30;;;;;;;31.54;34.92;98344.44;8353706;28;20210;-86
2021/08/12 11:39:02;;;;;;;5.37;4.47;;;;;;;31.21;33.12;98349.47;8354086;28;20204;-86
2021/08/12 11:43:07;;;;;;;5.90;4.77;;;;;;;31.00;34.17;98345.78;8356433;28;20214;-84
2021/08/12 11:47:12;;;;;;;9.30;5.63;;;;;;;30.21;34.28;98351.72;8363919;28;20236;-86
2021/08/12 11:51:15;;;;;;;6.33;4.80;;;;;;;30.64;34.87;98348.41;8352998;28;20212;-85
2021/08/12 11:55:19;;;;;;;8.40;5.17;;;;;;;30.50;35.65;98348.25;8352817;28;20228;-85
2021/08/12 11:59:27;;;;;;;6.67;4.87;;;;;;;30.75;34.35;98347.94;8352799;28;20206;-85
2021/08/12 12:03:34;;;;;;;6.53;5.20;;;;;;;30.46;34.24;98336.25;8352903;28;20213;-84
2021/08/12 12:07:44;;;;;;;7.07;5.17;;;;;;;30.16;34.64;98330.09;8352680;28;20530;-88
2021/08/12 12:11:55;;;;;;;6.83;4.90;;;;;;;30.32;34.82;98315.75;8352323;28;20201;-83
2021/08/12 12:15:59;;;;;;;7.10;5.77;;;;;;;29.99;34.71;98324.94;8352251;28;20203;-85
2021/08/12 12:20:11;;;;;;;7.53;5.33;;;;;;;29.50;35.56;98325.38;8352092;28;20204;-87
2021/08/12 12:24:14;;;;;;;6.17;5.53;;;;;;;29.71;35.57;98326.53;8352205;28;20232;-85
2021/08/12 12:28:18;;;;;;;7.10;5.40;;;;;;;29.52;35.74;98327.88;8351520;28;20232;-86
2021/08/12 12:32:22;;;;;;;6.17;5.03;;;;;;;29.49;37.01;98326.38;8351695;28;20204;-85
2021/08/12 12:36:25;;;;;;;6.80;5.00;;;;;;;29.72;35.91;98320.19;8351443;28;20234;-88
2021/08/12 12:40:29;;;;;;;7.90;5.83;;;;;;;29.97;37.51;98310.94;8351542;28;20202;-85
2021/08/12 12:44:32;;;;;;;7.33;5.23;;;;;;;30.08;36.31;98311.50;8351287;28;20213;-86
2021/08/12 12:48:38;;;;;;;7.77;5.07;;;;;;;30.20;35.07;98302.84;8351225;28;20228;-86
2021/08/12 12:52:54;;;;;;;6.37;5.17;;;;;;;30.18;35.48;98310.22;8351426;28;20224;-85
2021/08/12 12:56:57;;;;;;;7.00;5.37;;;;;;;30.49;34.18;98298.50;8351053;28;20210;-85
2021/08/12 13:01:02;;;;;;;7.97;5.37;;;;;;;30.80;34.28;98297.38;8350923;28;20205;-84
2021/08/12 13:05:07;;;;;;;5.83;5.23;;;;;;;30.95;34.90;98295.50;8350740;28;20222;-84
2021/08/12 13:09:29;;;;;;;6.13;5.30;;;;;;;30.23;34.82;98290.13;8350617;28;20202;-85
2021/08/12 13:13:31;;;;;;;6.37;5.07;;;;;;;30.34;36.63;98292.34;8350777;28;20269;-85
2021/08/12 13:17:34;;;;;;;7.37;4.90;;;;;;;30.55;35.62;98289.72;8350788;28;20216;-84
2021/08/12 13:21:44;;;;;;;6.30;5.00;;;;;;;31.05;33.27;98289.84;8350639;28;20463;-85
2021/08/12 13:25:56;;;;;;;7.43;5.03;;;;;;;30.98;33.55;98300.50;8350251;28;20238;-88
2021/08/12 13:30:04;;;;;;;8.50;5.07;;;;;;;31.08;33.50;98286.81;8350079;28;20204;-85
2021/08/12 13:34:07;;;;;;;9.03;5.40;;;;;;;30.83;34.20;98286.31;8350020;28;20210;-84
2021/08/12 13:38:11;;;;;;;7.83;5.10;;;;;;;30.27;34.83;98291.41;8350058;28;20244;-86
2021/08/12 13:42:14;;;;;;;6.43;4.97;;;;;;;30.82;35.55;98284.66;8349008;28;20209;-85
2021/08/12 13:46:17;;;;;;;7.00;4.97;;;;;;;31.02;33.79;98289.44;8350003;28;20235;-85
2021/08/12 13:50:20;;;;;;;5.70;4.77;;;;;;;31.10;34.28;98286.63;8349818;28;20203;-86
2021/08/12 13:54:24;;;;;;;6.47;5.07;;;;;;;31.17;35.08;98293.69;8349692;28;20270;-84
2021/08/12 13:58:27;;;;;;;4.90;4.40;;;;;;;31.31;34.79;98285.75;8349633;28;20210;-85
2021/08/12 14:02:30;;;;;;;7.53;5.00;;;;;;;31.07;34.59;98286.97;8349821;28;20361;-85
2021/08/12 14:06:35;;;;;;;7.30;4.40;;;;;;;31.24;34.64;98283.03;8349476;28;20246;-84
2021/08/12 14:10:39;;;;;;;8.93;4.70;;;;;;;31.13;34.74;98278.19;8349664;28;20203;-85
2021/08/12 14:14:42;;;;;;;7.77;4.70;;;;;;;30.67;34.54;98279.34;8352126;28;20514;-84
2021/08/12 14:18:45;;;;;;;6.37;5.00;;;;;;;31.04;33.77;98276.69;8351248;28;20320;-86
2021/08/12 14:22:48;;;;;;;6.93;4.40;;;;;;;30.35;34.63;98278.81;8349503;28;20206;-85
2021/08/12 14:26:53;;;;;;;5.83;4.90;;;;;;;29.81;35.56;98282.56;8349267;28;20229;-85
2021/08/12 14:30:56;;;;;;;6.83;5.20;;;;;;;30.22;35.59;98267.94;8349228;28;20210;-85
2021/08/12 14:34:59;;;;;;;6.07;4.70;;;;;;;30.20;37.02;98270.78;8349163;28;20200;-85
2021/08/12 14:39:04;;;;;;;6.10;4.80;;;;;;;30.00;37.68;98264.34;8349355;28;20499;-85
2021/08/12 14:43:08;;;;;;;5.70;4.30;;;;;;;30.21;36.93;98258.25;8349278;28;20206;-85
2021/08/12 14:47:11;;;;;;;5.07;4.57;;;;;;;30.44;36.59;98268.00;8348918;28;20236;-85
2021/08/12 14:51:14;;;;;;;6.63;4.53;;;;;;;30.06;34.27;98268.94;8349611;28;20221;-84
2021/08/12 14:55:16;;;;;;;5.93;4.50;;;;;;;30.15;35.72;98253.66;8354834;28;20499;-84
2021/08/12 14:59:21;;;;;;;4.60;4.20;;;;;;;30.27;34.89;98248.66;8354695;28;20211;-84
2021/08/12 15:03:23;;;;;;;5.80;5.27;;;;;;;30.36;34.73;98253.75;8354695;28;20393;-84
2021/08/12 15:07:26;;;;;;;5.57;4.23;;;;;;;30.12;33.88;98244.19;8354711;28;20232;-88
2021/08/12 15:11:29;;;;;;;5.40;4.30;;;;;;;30.02;34.94;98249.81;8354353;28;20207;-84
2021/08/12 15:15:34;;;;;;;5.53;5.03;;;;;;;30.29;34.37;98251.97;8354095;28;20208;-84
2021/08/12 15:19:37;;;;;;;5.27;4.77;;;;;;;30.10;34.54;98248.91;8354177;28;20212;-86
2021/08/12 15:23:40;;;;;;;5.33;4.60;;;;;;;30.08;34.22;98236.72;8353951;28;20393;-85
2021/08/12 15:27:42;;;;;;;7.10;4.87;;;;;;;30.09;33.89;98236.53;8353885;28;20231;-85
2021/08/12 15:31:47;;;;;;;5.20;4.70;;;;;;;29.98;35.33;98237.00;8353851;28;20208;-85
2021/08/12 15:35:49;;;;;;;5.17;4.40;;;;;;;30.02;34.69;98230.28;8353389;28;20238;-85
2021/08/12 15:39:52;;;;;;;4.63;4.20;;;;;;;29.87;34.44;98226.81;8353509;28;20202;-84
2021/08/12 15:43:55;;;;;;;5.27;4.77;;;;;;;29.72;34.11;98230.28;8353401;28;20206;-84
2021/08/12 15:48:00;;;;;;;5.40;4.60;;;;;;;29.78;35.27;98220.75;8353058;28;20229;-84
2021/08/12 15:52:04;;;;;;;6.23;4.67;;;;;;;29.62;35.57;98224.38;8353167;28;20390;-84
2021/08/12 15:56:07;;;;;;;5.33;4.80;;;;;;;29.47;35.51;98231.56;8353122;28;20203;-84
2021/08/12 16:00:10;;;;;;;6.60;4.80;;;;;;;29.39;34.62;98221.78;8352868;28;20223;-84
2021/08/12 16:04:15;;;;;;;7.30;4.40;;;;;;;29.37;36.13;98227.31;8352190;28;20223;-84
2021/08/12 16:08:17;;;;;;;5.77;4.90;;;;;;;29.32;35.89;98220.84;8352652;28;20229;-83
2021/08/12 16:12:20;;;;;;;8.07;4.53;;;;;;;29.20;37.02;98220.47;8352531;28;20492;-83
2021/08/12 16:16:23;;;;;;;5.40;4.00;;;;;;;29.17;37.58;98223.53;8352360;28;20217;-83
2021/08/12 16:20:30;;;;;;;5.70;4.77;;;;;;;29.08;39.31;98222.72;8352508;28;20201;-83
2021/08/12 16:24:33;;;;;;;8.47;5.17;;;;;;;29.07;40.14;98220.22;8351912;28;20210;-83
2021/08/12 16:28:36;;;;;;;6.43;5.17;;;;;;;29.03;39.98;98223.28;8352032;28;20233;-83
2021/08/12 16:32:38;;;;;;;10.37;5.83;;;;;;;28.88;40.02;98229.53;8352193;28;20204;-84
2021/08/12 16:36:43;;;;;;;8.77;5.97;;;;;;;28.87;40.40;98217.25;8351628;28;20242;-84
2021/08/12 16:40:45;;;;;;;8.30;5.33;;;;;;;28.87;41.01;98218.06;8352087;28;20222;-84
2021/08/12 16:44:48;;;;;;;5.83;4.87;;;;;;;28.85;41.24;98209.41;8362149;28;20203;-85
2021/08/12 16:48:51;;;;;;;9.33;5.27;;;;;;;28.81;40.93;98206.28;8351395;28;20234;-85
2021/08/12 16:52:55;;;;;;;6.70;5.13;;;;;;;28.68;41.05;98208.72;8350811;28;20491;-84
2021/08/12 16:56:58;;;;;;;6.63;5.33;;;;;;;28.73;40.79;98206.34;8350678;28;20506;-84
2021/08/12 17:01:01;;;;;;;12.10;5.83;;;;;;;28.58;40.91;98203.63;8350597;28;20211;-84
2021/08/12 17:05:10;;;;;;;8.50;5.80;;;;;;;28.43;40.54;98200.84;8350832;28;20227;-84
2021/08/12 17:09:14;;;;;;;5.90;5.30;;;;;;;28.34;41.01;98199.25;8350479;28;20236;-84
2021/08/12 17:13:17;;;;;;;10.73;5.90;;;;;;;28.16;42.25;98196.00;8350073;28;20213;-84
2021/08/12 17:17:20;;;;;;;10.70;6.17;;;;;;;28.09;42.45;98190.56;8350232;28;20214;-84
2021/08/12 17:21:23;;;;;;;8.07;5.53;;;;;;;27.98;42.09;98191.78;8349766;28;20322;-84
2021/08/12 17:25:27;;;;;;;9.47;5.90;;;;;;;27.94;42.17;98193.13;8349908;28;20218;-84
2021/08/12 17:29:30;;;;;;;6.27;5.27;;;;;;;27.87;42.61;98192.97;8350134;28;20231;-83
2021/08/12 17:33:33;;;;;;;7.83;5.67;;;;;;;27.91;43.09;98184.66;8350103;28;20502;-84
2021/08/12 17:37:36;;;;;;;19.73;6.77;;;;;;;27.78;42.31;98180.72;8349730;28;20673;-84
2021/08/12 17:41:40;;;;;;;15.13;6.13;;;;;;;27.74;42.30;98179.41;8349568;28;20404;-84
2021/08/12 17:45:43;;;;;;;14.53;5.80;;;;;;;27.68;42.39;98174.75;8349407;28;20207;-84
2021/08/12 17:49:45;;;;;;;32.27;6.67;;;;;;;27.61;42.79;98171.97;8349421;28;20234;-85
2021/08/12 17:53:48;;;;;;;23.50;7.00;;;;;;;27.57;43.12;98177.78;8349151;28;20209;-84
2021/08/12 17:57:52;;;;;;;36.23;6.97;;;;;;;27.48;43.46;98163.69;8350054;28;20394;-84
2021/08/12 18:01:57;;;;;;;32.67;6.80;;;;;;;27.36;43.62;98171.19;8350573;28;20369;-84
2021/08/12 18:05:59;;;;;;;23.87;6.50;;;;;;;27.30;43.92;98172.72;8349962;28;20228;-84
2021/08/12 18:10:02;;;;;;;16.63;6.10;;;;;;;27.24;44.68;98176.00;8350240;28;20222;-84
2021/08/12 18:14:06;;;;;;;7.90;5.50;;;;;;;27.15;45.29;98182.34;8350147;28;20211;-84
2021/08/12 18:18:10;;;;;;;12.57;6.03;;;;;;;27.04;46.37;98180.03;8349860;28;20205;-84
2021/08/12 18:22:12;;;;;;;10.67;5.53;;;;;;;26.96;47.11;98193.31;8349393;28;20218;-84
2021/08/12 18:26:15;;;;;;;10.93;6.23;;;;;;;26.85;46.79;98195.31;8349953;28;20489;-84
2021/08/12 18:30:20;;;;;;;13.00;6.73;;;;;;;26.79;46.82;98203.94;8355328;28;20230;-84
2021/08/12 18:34:23;;;;;;;9.43;6.60;;;;;;;26.70;47.76;98208.41;8355351;28;20209;-84
2021/08/12 18:38:26;;;;;;;13.00;5.90;;;;;;;26.56;47.31;98213.50;8354948;28;20234;-84
2021/08/12 18:42:29;;;;;;;13.67;6.37;;;;;;;26.47;48.24;98220.66;8355116;28;20208;-84
2021/08/12 18:46:33;;;;;;;10.33;6.17;;;;;;;26.45;48.16;98220.81;8354742;28;20202;-84
2021/08/12 18:50:36;;;;;;;13.50;5.80;;;;;;;26.39;48.63;98229.44;8354722;28;20231;-84
2021/08/12 18:54:38;;;;;;;11.20;6.50;;;;;;;26.30;49.10;98238.34;8354777;28;20209;-84
2021/08/12 18:58:41;;;;;;;9.67;6.90;;;;;;;26.23;48.90;98251.44;8354662;28;20214;-84
2021/08/12 19:02:45;;;;;;;11.07;6.63;;;;;;;26.16;48.93;98241.63;8354662;28;20384;-84
2021/08/12 19:06:48;;;;;;;21.67;7.23;;;;;;;26.13;49.62;98254.22;8354411;28;20222;-84
2021/08/12 19:10:51;;;;;;;25.43;6.73;;;;;;;26.07;49.89;98265.47;8354733;28;20232;-84